ENRA/MQN METAR and TAF weather

Enter ICAO airport designator
Station Type Date Time Source
ENRA METAR 2018/01/19 22:50 UTC NOAA

ENRA 192250Z 08007KT CAVOK M07/M14 Q1004


Station Type Date Time Source
ENRA Decoded METAR 2018/01/19 22:50 UTC NOAA

Mo I Rana / Rossvoll, Norway (ENRA) 66-22N 014-18E 70M
Jan 19, 2018 - 05:50 PM EST / 2018.01.19 2250 UTC
Wind: from the E (080 degrees) at 8 MPH (7 KT):0
Visibility: greater than 7 mile(s):0
Temperature: 19 F (-7 C)
Windchill: 8 F (-13 C):1
Dew Point: 6 F (-14 C)
Relative Humidity: 57%
Pressure (altimeter): 29.65 in. Hg (1004 hPa)
ob: ENRA 192250Z 08007KT CAVOK M07/M14 Q1004
cycle: 23

Station Type Date Time Source
ENRA TAF UTC NOAA

Error!


Example: see airport list